createdAt,value
2017-12-01T00:00:40.991Z,8.10
2017-12-01T00:03:08.543Z,8.82
2017-12-01T00:05:36.127Z,8.38
2017-12-01T00:08:03.675Z,9.13
2017-12-01T00:10:31.220Z,10.17
2017-12-01T00:12:58.777Z,9.33
2017-12-01T00:15:26.339Z,10.50
2017-12-01T00:17:53.919Z,10.70
2017-12-01T00:20:21.478Z,10.60
2017-12-01T00:22:49.057Z,9.00
2017-12-01T00:25:16.609Z,9.35
2017-12-01T00:27:44.154Z,10.52
2017-12-01T00:30:11.711Z,9.25
2017-12-01T00:32:39.267Z,8.75
2017-12-01T00:35:06.839Z,8.10
2017-12-01T00:37:34.372Z,8.60
2017-12-01T00:40:01.954Z,8.90
2017-12-01T00:42:29.511Z,8.43
2017-12-01T00:44:57.078Z,9.20
2017-12-01T00:47:24.616Z,8.83
2017-12-01T00:49:52.158Z,9.50
2017-12-01T00:52:19.738Z,10.40
2017-12-01T00:54:47.285Z,9.20
2017-12-01T00:57:14.870Z,8.27
2017-12-01T00:59:42.430Z,9.70
2017-12-01T01:02:09.969Z,9.87
2017-12-01T01:04:37.535Z,9.60
2017-12-01T01:07:05.087Z,9.67
2017-12-01T01:09:32.629Z,8.90
2017-12-01T01:12:00.943Z,10.00
2017-12-01T01:14:28.491Z,9.00
2017-12-01T01:16:56.057Z,10.00
2017-12-01T01:19:23.601Z,8.83
2017-12-01T01:21:51.174Z,9.53
2017-12-01T01:24:18.727Z,8.27
2017-12-01T01:26:46.282Z,8.93
2017-12-01T01:29:13.830Z,8.63
2017-12-01T01:31:42.147Z,9.87
2017-12-01T01:37:02.672Z,8.17
2017-12-01T01:39:30.242Z,8.90
2017-12-01T01:41:57.796Z,8.73
2017-12-01T01:44:25.342Z,9.00
2017-12-01T01:46:52.917Z,7.57
2017-12-01T01:49:21.235Z,8.97
2017-12-01T01:51:49.610Z,9.50
2017-12-01T01:54:17.147Z,9.63
2017-12-01T01:56:44.687Z,9.67
2017-12-01T01:59:12.256Z,10.83
2017-12-01T02:01:39.827Z,9.80
2017-12-01T02:04:07.386Z,9.77
2017-12-01T02:06:34.934Z,10.60
2017-12-01T02:09:02.505Z,9.37
2017-12-01T02:11:30.061Z,11.13
2017-12-01T02:13:57.606Z,10.20
2017-12-01T02:16:25.163Z,9.33
2017-12-01T02:18:52.706Z,8.90
2017-12-01T02:21:20.310Z,9.43
2017-12-01T02:23:47.870Z,9.40
2017-12-01T02:26:15.418Z,9.33
2017-12-01T02:28:42.968Z,11.67
2017-12-01T02:31:10.545Z,10.73
2017-12-01T02:33:38.143Z,10.67
2017-12-01T02:36:06.481Z,11.37
2017-12-01T02:38:34.022Z,11.90
2017-12-01T02:41:01.570Z,12.23
2017-12-01T02:43:29.119Z,12.40
2017-12-01T02:45:56.711Z,12.03
2017-12-01T02:48:24.262Z,12.67
2017-12-01T02:50:51.839Z,13.20
2017-12-01T02:53:19.395Z,13.10
2017-12-01T02:55:46.957Z,13.03
2017-12-01T02:58:14.538Z,13.90
2017-12-01T03:00:42.086Z,12.87
2017-12-01T03:03:09.641Z,12.60
2017-12-01T03:05:37.210Z,13.97
2017-12-01T03:08:04.763Z,14.07
2017-12-01T03:10:32.358Z,13.83
2017-12-01T03:13:00.682Z,13.77
2017-12-01T03:15:28.241Z,14.40
2017-12-01T03:17:55.808Z,15.33
2017-12-01T03:20:23.361Z,16.77
2017-12-01T03:22:50.931Z,15.67
2017-12-01T03:25:18.493Z,15.80
2017-12-01T03:27:46.034Z,16.23
2017-12-01T03:30:13.579Z,15.47
2017-12-01T03:32:41.126Z,15.77
2017-12-01T03:35:09.502Z,16.00
2017-12-01T03:37:38.017Z,15.33
2017-12-01T03:40:05.569Z,15.20
2017-12-01T03:42:33.147Z,15.47
2017-12-01T03:45:00.710Z,15.97
2017-12-01T03:47:28.291Z,16.97
2017-12-01T03:49:55.851Z,16.27
2017-12-01T03:52:23.444Z,17.77
2017-12-01T03:54:51.810Z,16.67
2017-12-01T03:57:19.381Z,16.00
2017-12-01T03:59:47.719Z,15.33
2017-12-01T04:02:15.279Z,16.27
2017-12-01T04:04:42.851Z,16.10
2017-12-01T04:07:10.398Z,17.33
2017-12-01T04:09:37.952Z,18.03
2017-12-01T04:12:05.531Z,17.53
2017-12-01T04:14:33.091Z,18.53
2017-12-01T04:17:00.654Z,17.73
2017-12-01T04:19:28.214Z,19.13
2017-12-01T04:21:55.751Z,19.47
2017-12-01T04:24:23.385Z,20.10
2017-12-01T04:26:50.974Z,22.17
2017-12-01T04:29:18.532Z,22.10
2017-12-01T04:31:46.087Z,20.77
2017-12-01T04:34:13.646Z,21.20
2017-12-01T04:36:41.218Z,22.17
2017-12-01T04:39:08.760Z,20.73
2017-12-01T04:41:36.317Z,19.17
2017-12-01T04:44:03.871Z,21.10
2017-12-01T04:46:31.423Z,19.73
2017-12-01T04:48:59.026Z,22.20
2017-12-01T04:51:26.580Z,19.33
2017-12-01T04:53:54.184Z,22.30
2017-12-01T04:56:22.500Z,23.07
2017-12-01T04:58:50.046Z,22.90
2017-12-01T05:01:17.612Z,23.70
2017-12-01T05:03:45.221Z,21.70
2017-12-01T05:06:12.855Z,21.10
2017-12-01T05:08:40.761Z,20.30
2017-12-01T05:11:09.174Z,19.40
2017-12-01T05:13:36.752Z,19.45
2017-12-01T05:16:04.303Z,19.98
2017-12-01T05:18:31.895Z,20.30
2017-12-01T05:20:59.475Z,20.57
2017-12-01T05:23:27.032Z,17.13
2017-12-01T05:25:54.611Z,17.17
2017-12-01T05:28:23.823Z,17.87
2017-12-01T05:30:52.173Z,19.67
2017-12-01T05:33:19.748Z,18.52
2017-12-01T05:35:48.111Z,18.95
2017-12-01T05:38:28.458Z,17.35
2017-12-01T05:40:56.047Z,18.03
2017-12-01T05:43:24.382Z,17.80
2017-12-01T05:45:51.939Z,17.10
2017-12-01T05:48:19.508Z,17.35
2017-12-01T05:50:47.088Z,17.23
2017-12-01T05:53:14.709Z,16.50
2017-12-01T05:55:42.296Z,15.70
2017-12-01T05:58:09.857Z,17.40
2017-12-01T06:00:37.455Z,17.03
2017-12-01T06:03:05.773Z,17.20
2017-12-01T06:05:33.382Z,18.67
2017-12-01T06:08:00.940Z,18.00
2017-12-01T06:10:28.561Z,17.85
2017-12-01T06:12:56.122Z,16.87
2017-12-01T06:15:23.676Z,16.83
2017-12-01T06:17:51.254Z,15.63
2017-12-01T06:20:18.807Z,15.20
2017-12-01T06:22:46.384Z,13.93
2017-12-01T06:25:14.883Z,14.00
2017-12-01T06:27:45.887Z,15.10
2017-12-01T06:30:14.066Z,13.97
2017-12-01T06:32:41.751Z,15.35
2017-12-01T06:35:09.299Z,13.40
2017-12-01T06:37:42.580Z,14.57
2017-12-01T06:40:10.150Z,14.80
2017-12-01T06:42:37.743Z,13.83
2017-12-01T06:45:06.071Z,15.73
2017-12-01T06:47:33.623Z,14.40
2017-12-01T06:50:01.196Z,15.65
2017-12-01T06:52:28.779Z,14.45
2017-12-01T06:54:56.428Z,14.43
2017-12-01T06:57:23.979Z,14.80
2017-12-01T06:59:51.539Z,13.10
2017-12-01T07:02:19.130Z,12.77
2017-12-01T07:04:46.692Z,13.27
2017-12-01T07:07:14.251Z,14.30
2017-12-01T07:09:41.822Z,15.27
2017-12-01T07:12:10.144Z,13.73
2017-12-01T07:14:37.719Z,14.00
2017-12-01T07:17:05.266Z,14.17
2017-12-01T07:19:32.830Z,13.30
2017-12-01T07:22:00.387Z,13.73
2017-12-01T07:24:27.946Z,14.15
2017-12-01T07:27:07.423Z,12.55
2017-12-01T07:29:34.967Z,14.10
2017-12-01T07:32:02.512Z,13.97
2017-12-01T07:34:30.095Z,13.10
2017-12-01T07:36:57.645Z,14.43
2017-12-01T07:39:28.390Z,16.57
2017-12-01T07:41:55.946Z,14.50
2017-12-01T07:44:25.188Z,14.37
2017-12-01T07:46:53.517Z,14.07
2017-12-01T07:49:21.071Z,12.03
2017-12-01T07:51:48.626Z,12.37
2017-12-01T07:54:16.179Z,13.77
2017-12-01T07:56:43.740Z,15.13
2017-12-01T07:59:11.312Z,14.13
2017-12-01T08:01:38.851Z,14.90
2017-12-01T08:04:06.411Z,15.60
2017-12-01T08:06:33.971Z,14.60
2017-12-01T08:09:01.522Z,14.80
2017-12-01T08:11:29.874Z,14.37
2017-12-01T08:13:57.426Z,14.10
2017-12-01T08:16:36.584Z,15.43
2017-12-01T08:19:08.462Z,14.30
2017-12-01T08:21:47.671Z,14.60
2017-12-01T08:24:27.826Z,14.60
2017-12-01T08:30:04.001Z,13.13
2017-12-01T08:32:32.372Z,14.10
2017-12-01T08:34:59.920Z,13.03
2017-12-01T08:37:27.480Z,12.60
2017-12-01T08:39:55.016Z,13.00
2017-12-01T08:42:22.582Z,13.90
2017-12-01T08:44:50.146Z,12.83
2017-12-01T08:47:17.715Z,14.80
2017-12-01T08:49:45.263Z,15.17
2017-12-01T08:52:13.588Z,15.07
2017-12-01T08:54:41.904Z,13.67
2017-12-01T08:57:09.474Z,12.87
2017-12-01T08:59:37.032Z,12.00
2017-12-01T09:02:04.579Z,12.37
2017-12-01T09:04:32.116Z,11.00
2017-12-01T09:07:00.439Z,11.50
2017-12-01T09:09:28.778Z,11.67
2017-12-01T09:11:57.082Z,11.67
2017-12-01T09:14:24.636Z,12.00
2017-12-01T09:16:52.184Z,13.80
2017-12-01T09:19:19.731Z,12.63
2017-12-01T09:21:48.087Z,12.03
2017-12-01T09:24:15.626Z,12.07
2017-12-01T09:26:43.184Z,10.40
2017-12-01T09:29:10.746Z,11.77
2017-12-01T09:31:38.294Z,12.30
2017-12-01T09:34:05.897Z,12.77
2017-12-01T09:36:34.215Z,11.20
2017-12-01T09:39:01.767Z,11.87
2017-12-01T09:41:29.319Z,12.00
2017-12-01T09:43:56.868Z,11.40
2017-12-01T09:46:25.226Z,10.77
2017-12-01T09:48:52.777Z,12.60
2017-12-01T09:51:20.314Z,12.00
2017-12-01T09:53:47.868Z,13.60
2017-12-01T09:56:15.436Z,12.53
2017-12-01T09:58:42.987Z,13.40
2017-12-01T10:01:10.533Z,13.97
2017-12-01T10:03:38.115Z,14.30
2017-12-01T10:06:05.667Z,12.00
2017-12-01T10:08:33.219Z,13.30
2017-12-01T10:11:00.763Z,12.60
2017-12-01T10:13:28.306Z,12.93
2017-12-01T10:15:56.658Z,10.80
2017-12-01T10:18:24.207Z,10.97
2017-12-01T10:20:51.750Z,12.87
2017-12-01T10:23:19.303Z,10.97
2017-12-01T10:25:46.837Z,11.13
2017-12-01T10:28:14.436Z,12.60
2017-12-01T10:30:41.988Z,11.83
2017-12-01T10:33:09.543Z,13.20
2017-12-01T10:35:37.086Z,12.77
2017-12-01T10:38:04.651Z,11.57
2017-12-01T10:40:32.218Z,10.93
2017-12-01T10:42:59.801Z,12.00
2017-12-01T10:45:27.351Z,10.73
2017-12-01T10:47:54.908Z,12.27
2017-12-01T10:50:22.446Z,23.63
2017-12-01T10:52:50.200Z,13.97
2017-12-01T10:55:17.746Z,14.23
2017-12-01T10:57:46.063Z,14.40
2017-12-01T11:00:13.608Z,12.73
2017-12-01T11:02:41.155Z,11.90
2017-12-01T11:05:08.742Z,12.80
2017-12-01T11:07:36.289Z,12.50
2017-12-01T11:10:03.861Z,11.93
2017-12-01T11:12:31.407Z,13.03
2017-12-01T11:14:58.956Z,12.40
2017-12-01T11:17:26.531Z,11.97
2017-12-01T11:19:54.083Z,13.90
2017-12-01T11:22:21.626Z,12.70
2017-12-01T11:24:49.931Z,12.73
2017-12-01T11:27:17.482Z,13.00
2017-12-01T11:29:45.062Z,13.07
2017-12-01T11:32:12.619Z,14.03
2017-12-01T11:34:40.159Z,14.17
2017-12-01T11:37:07.708Z,14.10
2017-12-01T11:39:35.255Z,14.27
2017-12-01T11:42:03.590Z,11.00
2017-12-01T11:44:31.134Z,10.43
2017-12-01T11:46:58.667Z,10.40
2017-12-01T11:49:26.211Z,9.90
2017-12-01T11:51:54.517Z,11.43
2017-12-01T11:54:22.111Z,12.50
2017-12-01T11:56:50.446Z,12.20
2017-12-01T11:59:18.026Z,12.67
2017-12-01T12:01:45.595Z,12.80
2017-12-01T12:04:13.151Z,13.50
2017-12-01T12:06:40.712Z,13.77
2017-12-01T12:09:08.287Z,14.43
2017-12-01T12:11:35.866Z,12.20
2017-12-01T12:14:03.419Z,12.70
2017-12-01T12:16:30.977Z,12.97
2017-12-01T12:18:58.539Z,11.90
2017-12-01T12:21:26.119Z,12.40
2017-12-01T12:23:53.678Z,12.17
2017-12-01T12:26:21.223Z,11.23
2017-12-01T12:28:48.767Z,11.73
2017-12-01T12:31:26.940Z,13.50
2017-12-01T12:33:54.529Z,14.23
2017-12-01T12:36:22.248Z,13.57
2017-12-01T12:38:50.592Z,13.37
2017-12-01T12:41:18.154Z,12.70
2017-12-01T12:43:45.708Z,12.90
2017-12-01T12:46:13.278Z,12.57
2017-12-01T12:48:40.866Z,10.60
2017-12-01T12:51:09.215Z,10.40
2017-12-01T12:53:36.774Z,9.90
2017-12-01T12:56:04.330Z,10.20
2017-12-01T12:58:45.302Z,12.20
2017-12-01T13:01:12.871Z,10.83
2017-12-01T13:03:40.466Z,10.80
2017-12-01T13:06:08.022Z,13.00
2017-12-01T13:08:36.359Z,13.27
2017-12-01T13:11:03.929Z,12.17
2017-12-01T13:13:31.537Z,11.60
2017-12-01T13:15:59.143Z,12.73
2017-12-01T13:18:26.704Z,12.60
2017-12-01T13:20:54.278Z,12.70
2017-12-01T13:23:21.846Z,12.07
2017-12-01T13:25:49.383Z,11.37
2017-12-01T13:28:16.969Z,11.77
2017-12-01T13:30:44.507Z,10.83
2017-12-01T13:33:12.829Z,10.97
2017-12-01T13:35:40.380Z,10.73
2017-12-01T13:38:07.940Z,11.30
2017-12-01T13:40:36.275Z,10.00
2017-12-01T13:43:03.842Z,11.23
2017-12-01T13:45:31.482Z,10.40
2017-12-01T13:47:59.062Z,11.00
2017-12-01T13:50:26.624Z,11.50
2017-12-01T13:52:54.243Z,12.60
2017-12-01T13:55:21.796Z,11.37
2017-12-01T13:57:49.415Z,11.20
2017-12-01T14:00:16.968Z,9.60
2017-12-01T14:02:44.548Z,11.10
2017-12-01T14:05:12.104Z,11.67
2017-12-01T14:07:39.652Z,11.30
2017-12-01T14:10:07.243Z,11.70
2017-12-01T14:12:34.793Z,10.60
2017-12-01T14:15:02.330Z,10.10
2017-12-01T14:17:29.878Z,10.83
2017-12-01T14:19:57.416Z,11.13
2017-12-01T14:22:24.975Z,12.63
2017-12-01T14:24:52.520Z,11.53
2017-12-01T14:27:20.107Z,12.10
2017-12-01T14:29:47.652Z,11.73
2017-12-01T14:32:15.210Z,12.90
2017-12-01T14:34:42.754Z,12.83
2017-12-01T14:37:10.322Z,13.10
2017-12-01T14:39:38.638Z,12.87
2017-12-01T14:42:06.190Z,12.87
2017-12-01T14:44:33.754Z,10.90
2017-12-01T14:47:01.297Z,10.40
2017-12-01T14:49:28.863Z,11.73
2017-12-01T14:51:56.410Z,12.90
2017-12-01T14:54:24.000Z,12.40
2017-12-01T14:56:51.567Z,12.60
2017-12-01T14:59:31.731Z,14.23
2017-12-01T15:01:59.309Z,13.43
2017-12-01T15:04:27.642Z,13.20
2017-12-01T15:06:55.202Z,15.93
2017-12-01T15:09:22.747Z,14.80
2017-12-01T15:11:50.301Z,14.17
2017-12-01T15:14:17.864Z,17.80
2017-12-01T15:16:45.421Z,17.80
2017-12-01T15:19:13.024Z,16.33
2017-12-01T15:21:40.662Z,16.73
2017-12-01T15:24:08.207Z,18.07
2017-12-01T15:29:28.742Z,15.27
2017-12-01T15:31:56.279Z,17.70
2017-12-01T15:34:23.842Z,17.20
2017-12-01T15:36:52.291Z,15.53
2017-12-01T15:39:20.608Z,14.43
2017-12-01T15:41:48.164Z,12.03
2017-12-01T15:44:15.723Z,13.73
2017-12-01T15:46:43.270Z,12.93
2017-12-01T15:49:10.851Z,13.90
2017-12-01T15:51:38.395Z,14.38
2017-12-01T15:54:05.943Z,13.90
2017-12-01T15:56:33.503Z,13.73
2017-12-01T15:59:01.103Z,14.50
2017-12-01T16:01:29.455Z,14.13
2017-12-01T16:03:57.299Z,14.87
2017-12-01T16:06:24.928Z,14.00
2017-12-01T16:08:52.541Z,15.80
2017-12-01T16:11:20.147Z,15.55
2017-12-01T16:13:47.728Z,15.10
2017-12-01T16:16:15.310Z,18.60
2017-12-01T16:18:43.630Z,18.90
2017-12-01T16:21:11.203Z,19.50
2017-12-01T16:23:38.796Z,19.27
2017-12-01T16:26:07.126Z,17.85
2017-12-01T16:28:45.131Z,15.30
2017-12-01T16:31:12.689Z,17.08
2017-12-01T16:33:41.919Z,16.27
2017-12-01T16:36:09.479Z,18.58
2017-12-01T16:38:37.042Z,19.45
2017-12-01T16:41:04.639Z,19.58
2017-12-01T16:43:32.189Z,19.80
2017-12-01T16:46:00.527Z,17.00
2017-12-01T16:48:28.858Z,19.08
2017-12-01T16:50:57.181Z,16.90
2017-12-01T16:53:24.750Z,19.60
2017-12-01T16:55:52.306Z,16.58
2017-12-01T16:58:19.855Z,19.93
2017-12-01T17:00:47.444Z,20.45
2017-12-01T17:03:15.031Z,20.75
2017-12-01T17:05:42.673Z,21.02
2017-12-01T17:08:10.364Z,20.08
2017-12-01T17:10:37.988Z,21.02
2017-12-01T17:13:05.552Z,22.67
2017-12-01T17:15:33.102Z,18.77
2017-12-01T17:18:10.366Z,21.45
2017-12-01T17:20:37.959Z,24.40
2017-12-01T17:23:05.550Z,25.40
2017-12-01T17:25:33.895Z,25.55
2017-12-01T17:33:50.092Z,19.15
2017-12-01T17:36:17.642Z,18.65
2017-12-01T17:38:45.238Z,18.98
2017-12-01T17:41:12.795Z,21.48
2017-12-01T17:43:40.368Z,21.90
2017-12-01T17:46:07.966Z,23.70
2017-12-01T17:48:39.775Z,26.98
2017-12-01T17:51:07.372Z,23.52
2017-12-01T17:53:35.691Z,23.20
2017-12-01T17:56:04.054Z,21.27
2017-12-01T17:58:33.587Z,21.87
2017-12-01T18:01:07.262Z,22.23
2017-12-01T18:04:00.069Z,22.13
2017-12-01T18:06:27.641Z,23.23
2017-12-01T18:08:55.282Z,21.45
2017-12-01T18:11:23.869Z,23.15
2017-12-01T18:13:55.772Z,24.25
2017-12-01T18:16:23.393Z,22.33
2017-12-01T18:18:50.946Z,23.45
2017-12-01T18:21:18.499Z,25.00
2017-12-01T18:23:46.090Z,24.02
2017-12-01T18:26:13.662Z,23.52
2017-12-01T18:28:41.991Z,22.98
2017-12-01T18:31:09.588Z,25.77
2017-12-01T18:33:37.176Z,24.02
2017-12-01T18:36:09.545Z,23.25
2017-12-01T18:38:37.879Z,22.50
2017-12-01T18:41:05.443Z,24.23
2017-12-01T18:43:32.998Z,23.58
2017-12-01T18:46:00.555Z,23.85
2017-12-01T18:48:28.156Z,27.10
2017-12-01T18:50:56.522Z,25.27
2017-12-01T18:53:25.088Z,25.12
2017-12-01T18:55:52.732Z,25.77
2017-12-01T18:58:25.528Z,27.87
2017-12-01T19:00:53.128Z,30.65
2017-12-01T19:03:24.934Z,28.60
2017-12-01T19:05:52.530Z,28.62
2017-12-01T19:08:20.094Z,27.30
2017-12-01T19:10:47.771Z,28.27
2017-12-01T19:13:17.138Z,28.73
2017-12-01T19:15:44.703Z,27.63
2017-12-01T19:18:13.456Z,27.20
2017-12-01T19:23:38.724Z,26.80
2017-12-01T19:26:18.990Z,30.37
2017-12-01T19:28:47.563Z,28.85
2017-12-01T19:31:22.847Z,27.58
2017-12-01T19:33:50.494Z,28.42
2017-12-01T19:36:18.046Z,26.60
2017-12-01T19:38:45.615Z,28.07
2017-12-01T19:41:18.510Z,29.52
2017-12-01T19:46:42.663Z,27.67
2017-12-01T19:49:10.309Z,25.55
2017-12-01T19:51:43.607Z,28.70
2017-12-01T19:54:11.188Z,27.23
2017-12-01T19:56:38.815Z,26.87
2017-12-01T19:59:06.390Z,28.05
2017-12-01T20:01:42.183Z,27.80
2017-12-01T20:04:22.871Z,27.58
2017-12-01T20:06:50.470Z,27.73
2017-12-01T20:09:18.037Z,26.87
2017-12-01T20:11:45.590Z,26.77
2017-12-01T20:14:13.182Z,25.95
2017-12-01T20:16:40.740Z,26.70
2017-12-01T20:19:08.300Z,26.00
2017-12-01T20:21:35.862Z,25.00
2017-12-01T20:24:03.446Z,25.40
2017-12-01T20:26:35.074Z,30.57
2017-12-01T20:29:08.902Z,35.03
2017-12-01T20:31:36.465Z,35.43
2017-12-01T20:34:08.388Z,32.23
2017-12-01T20:36:36.019Z,30.43
2017-12-01T20:39:03.590Z,26.70
2017-12-01T20:41:31.154Z,26.80
2017-12-01T20:43:58.721Z,25.35
2017-12-01T20:46:27.352Z,27.02
2017-12-01T20:48:57.635Z,33.10
2017-12-01T20:51:25.202Z,31.20
2017-12-01T20:53:52.758Z,28.00
2017-12-01T20:56:20.366Z,28.67
2017-12-01T20:58:48.693Z,29.00
2017-12-01T21:01:16.255Z,27.13
2017-12-01T21:03:43.814Z,27.93
2017-12-01T21:06:11.371Z,26.20
2017-12-01T21:08:39.011Z,24.73
2017-12-01T21:11:31.915Z,25.50
2017-12-01T21:13:59.516Z,26.90
2017-12-01T21:16:27.078Z,28.97
2017-12-01T21:18:54.637Z,29.67
2017-12-01T21:21:23.058Z,28.97
2017-12-01T21:23:50.642Z,31.73
2017-12-01T21:26:18.239Z,29.40
2017-12-01T21:28:45.811Z,29.15
2017-12-01T21:31:13.421Z,28.35
2017-12-01T21:33:40.971Z,29.80
2017-12-01T21:36:08.586Z,29.30
2017-12-01T21:38:37.102Z,31.60
2017-12-01T21:41:04.679Z,31.83
2017-12-01T21:43:32.239Z,31.98
2017-12-01T21:45:59.864Z,30.40
2017-12-01T21:48:27.459Z,32.25
2017-12-01T21:50:57.065Z,29.23
2017-12-01T21:53:24.634Z,29.67
2017-12-01T21:55:52.191Z,28.50
2017-12-01T21:58:19.743Z,30.30
2017-12-01T22:00:47.324Z,31.53
2017-12-01T22:03:18.315Z,29.43
2017-12-01T22:05:45.858Z,27.73
2017-12-01T22:08:13.414Z,27.83
2017-12-01T22:10:41.732Z,28.10
2017-12-01T22:13:09.341Z,29.07
2017-12-01T22:15:37.679Z,29.73
2017-12-01T22:18:05.255Z,28.93
2017-12-01T22:20:32.859Z,29.30
2017-12-01T22:23:00.411Z,30.77
2017-12-01T22:25:45.670Z,30.80
2017-12-01T22:28:13.218Z,32.63
2017-12-01T22:30:40.847Z,29.80
2017-12-01T22:33:08.413Z,32.07
2017-12-01T22:35:35.999Z,31.37
2017-12-01T22:38:03.583Z,31.53
2017-12-01T22:40:31.143Z,30.80
2017-12-01T22:42:59.493Z,30.73
2017-12-01T22:45:31.753Z,30.67
2017-12-01T22:47:59.363Z,30.50
2017-12-01T22:50:26.946Z,31.87
2017-12-01T22:52:54.493Z,31.60
2017-12-01T22:55:22.039Z,30.20
2017-12-01T22:57:49.638Z,31.83
2017-12-01T23:00:17.272Z,33.90
2017-12-01T23:02:44.863Z,32.80
2017-12-01T23:05:12.437Z,32.93
2017-12-01T23:07:39.981Z,31.07
2017-12-01T23:10:07.540Z,31.20
2017-12-01T23:12:35.132Z,31.80
2017-12-01T23:15:02.726Z,31.65
2017-12-01T23:17:31.051Z,31.80
2017-12-01T23:19:58.638Z,32.20
2017-12-01T23:22:26.193Z,32.90
2017-12-01T23:24:53.742Z,30.67
2017-12-01T23:27:21.330Z,30.50
2017-12-01T23:29:49.661Z,33.65
2017-12-01T23:32:17.242Z,30.87
2017-12-01T23:34:44.827Z,32.83
2017-12-01T23:37:12.387Z,32.63
2017-12-01T23:39:39.971Z,34.07
2017-12-01T23:42:07.537Z,32.53
2017-12-01T23:44:35.093Z,32.60
2017-12-01T23:47:02.670Z,33.10
2017-12-01T23:49:30.215Z,31.25
2017-12-01T23:51:57.803Z,31.80
2017-12-01T23:54:25.408Z,32.55
2017-12-01T23:56:52.983Z,33.55
2017-12-01T23:59:21.305Z,32.97
